Safe, Missouri
Current Conditions -  °F | °C
As of 8:53 AM on Thursday 23 Oct 2014 (Local Time) from KVIH Reporting Station
Overcast Overcast  
Wind Chill: 45°   Ceiling: 4200
Heat Index: 49°   Visibility: 10mi
Dew Point: 42°   Wind: 10mph
Humidity: 77%   Direction: 190°S
Pressure: 30.18"   Gusts: NA
Location:  37.9936°N, 91.5964°W
Report Text: KVIH 231353Z AUTO 19009KT 10SM OVC042 09/06 A3018 RMK AO2 SLP221 T00940056
Loading
Personal Weather Stations






























Interactive Weather Map
Tropical Storm Tracking
New forecast layout! Learn more

10-Day Weather Forecast

Advertisements
Track Severe Weather on mobile